Adamsville, Ohio
Current Conditions -  °F | °C
As of 7:28 AM on Monday 26 Jan 2015 (Local Time) from KZZV Reporting Station
Light Snow Light Snow  
Wind Chill: -10°   Ceiling: 1900
Heat Index: -6°   Visibility: 0.75mi
Dew Point: -7°   Wind: 7mph
Humidity: 89%   Direction: 360°N
Pressure: 29.73"   Gusts: NA
Location:  40.07°N, 81.88°W
Report Text: KZZV 261228Z AUTO 36006KT 3/4SM -SN BR BKN019 OVC029 M06/M07 A2973 RMK AO2 P0001 T10561072
Loading
Personal Weather Stations






























Interactive Weather Map New forecast layout! Learn more

10-Day Weather Forecast

Advertisements
Track Severe Weather on mobile